Crieff, United Kingdom
Current Conditions -  °F | °C
As of 4:20 PM on Sunday 23 Nov 2014 (Local Time) from EGPN Reporting Station
Clear Clear  
Wind Chill: 36°   Ceiling: Unl
Heat Index: 41°   Visibility: 6mi
Dew Point: 37°   Wind: 8mph
Humidity: 87%   Direction: 280°W
Pressure: 29.97"   Gusts: NA
Location:  56.37°N, 3.84°W
Report Text: EGPN 231620Z 28007KT CAVOK 05/03 Q1015
Loading
Personal Weather Stations






























Interactive Weather Map New forecast layout! Learn more

10-Day Weather Forecast

Advertisements
Track Severe Weather on mobile